createdAt,value
2023-08-15T00:00:22.314Z,3.80
2023-08-15T00:03:10.608Z,4.00
2023-08-15T00:05:39.074Z,3.60
2023-08-15T00:08:07.307Z,3.50
2023-08-15T00:10:35.684Z,3.90
2023-08-15T00:13:04.649Z,3.80
2023-08-15T00:15:33.042Z,3.80
2023-08-15T00:18:01.503Z,3.60
2023-08-15T00:20:29.764Z,3.80
2023-08-15T00:22:57.949Z,3.60
2023-08-15T00:25:26.143Z,3.70
2023-08-15T00:27:54.477Z,3.60
2023-08-15T00:30:22.686Z,3.80
2023-08-15T00:32:50.997Z,4.20
2023-08-15T00:35:19.451Z,3.90
2023-08-15T00:37:47.656Z,4.10
2023-08-15T00:40:15.855Z,3.90
2023-08-15T00:42:44.261Z,3.80
2023-08-15T00:45:12.449Z,4.00
2023-08-15T00:47:40.966Z,4.00
2023-08-15T00:50:10.877Z,4.40
2023-08-15T00:52:40.711Z,4.10
2023-08-15T00:55:11.185Z,4.30
2023-08-15T00:57:39.661Z,3.90
2023-08-15T01:00:09.178Z,3.80
2023-08-15T01:02:37.514Z,4.30
2023-08-15T01:05:09.169Z,4.30
2023-08-15T01:07:37.500Z,3.70
2023-08-15T01:10:06.683Z,3.60
2023-08-15T01:12:46.577Z,3.80
2023-08-15T01:15:24.354Z,3.60
2023-08-15T01:18:30.320Z,3.90
2023-08-15T01:20:59.872Z,3.80
2023-08-15T01:23:44.545Z,3.60
2023-08-15T01:26:12.831Z,3.80
2023-08-15T01:28:41.401Z,3.50
2023-08-15T01:31:31.283Z,3.80
2023-08-15T01:34:10.894Z,4.20
2023-08-15T01:36:48.896Z,3.90
2023-08-15T01:39:24.061Z,3.90
2023-08-15T01:41:54.829Z,4.00
2023-08-15T01:44:23.801Z,3.70
2023-08-15T01:46:52.176Z,4.00
2023-08-15T01:49:20.318Z,3.80
2023-08-15T01:51:48.572Z,3.50
2023-08-15T01:54:17.104Z,3.70
2023-08-15T01:56:45.450Z,3.70
2023-08-15T01:59:13.707Z,4.00
2023-08-15T02:01:41.977Z,4.60
2023-08-15T02:04:10.498Z,4.50
2023-08-15T02:06:38.716Z,3.70
2023-08-15T02:09:07.098Z,3.80
2023-08-15T02:11:37.041Z,3.90
2023-08-15T02:14:05.275Z,4.00
2023-08-15T02:16:33.497Z,4.00
2023-08-15T02:19:01.895Z,3.90
2023-08-15T02:21:30.252Z,4.00
2023-08-15T02:23:58.537Z,3.90
2023-08-15T02:26:26.969Z,3.90
2023-08-15T02:28:55.255Z,3.80
2023-08-15T02:31:26.603Z,3.90
2023-08-15T02:33:55.975Z,3.90
2023-08-15T02:36:24.088Z,3.70
2023-08-15T02:38:52.233Z,3.90
2023-08-15T02:41:21.869Z,3.80
2023-08-15T02:43:50.100Z,3.80
2023-08-15T02:46:18.483Z,4.10
2023-08-15T02:48:46.788Z,4.10
2023-08-15T02:51:15.042Z,4.30
2023-08-15T02:53:43.271Z,3.60
2023-08-15T02:56:11.469Z,4.10
2023-08-15T02:58:39.621Z,4.20
2023-08-15T03:01:08.572Z,4.00
2023-08-15T03:03:37.110Z,4.10
2023-08-15T03:06:05.232Z,4.10
2023-08-15T03:08:33.415Z,4.00
2023-08-15T03:11:01.687Z,5.10
2023-08-15T03:13:30.009Z,7.10
2023-08-15T03:15:59.511Z,5.60
2023-08-15T03:18:30.052Z,5.10
2023-08-15T03:21:04.472Z,4.50
2023-08-15T03:23:33.420Z,4.30
2023-08-15T03:26:04.139Z,4.00
2023-08-15T03:28:38.060Z,4.20
2023-08-15T03:31:09.929Z,4.70
2023-08-15T03:33:42.783Z,4.10
2023-08-15T03:36:11.225Z,4.30
2023-08-15T03:38:39.719Z,4.80
2023-08-15T03:41:08.215Z,4.20
2023-08-15T03:43:37.325Z,4.50
2023-08-15T03:46:07.526Z,4.00
2023-08-15T03:48:37.403Z,3.90
2023-08-15T03:51:06.025Z,4.30
2023-08-15T03:53:34.391Z,4.00
2023-08-15T03:56:02.999Z,3.90
2023-08-15T03:58:32.085Z,4.10
2023-08-15T04:01:02.302Z,4.20
2023-08-15T04:03:30.815Z,4.10
2023-08-15T04:05:59.143Z,4.10
2023-08-15T04:08:28.388Z,3.70
2023-08-15T04:10:56.747Z,4.80
2023-08-15T04:13:24.930Z,4.30
2023-08-15T04:15:53.283Z,10.10
2023-08-15T04:18:21.657Z,9.90
2023-08-15T04:20:49.877Z,9.20
2023-08-15T04:23:18.134Z,6.80
2023-08-15T04:25:47.107Z,6.60
2023-08-15T04:28:15.747Z,5.80
2023-08-15T04:30:44.639Z,6.00
2023-08-15T04:33:13.062Z,5.60
2023-08-15T04:35:42.434Z,5.60
2023-08-15T04:38:11.785Z,5.60
2023-08-15T04:40:42.016Z,4.90
2023-08-15T04:43:12.119Z,4.40
2023-08-15T04:45:45.306Z,4.50
2023-08-15T04:48:14.577Z,4.10
2023-08-15T04:50:43.098Z,4.00
2023-08-15T04:53:11.392Z,4.70
2023-08-15T04:55:39.798Z,3.90
2023-08-15T04:58:11.021Z,4.10
2023-08-15T05:00:39.583Z,4.10
2023-08-15T05:03:07.916Z,4.90
2023-08-15T05:05:36.275Z,4.70
2023-08-15T05:08:05.033Z,4.30
2023-08-15T05:10:34.445Z,4.00
2023-08-15T05:13:02.844Z,5.60
2023-08-15T05:15:31.495Z,6.30
2023-08-15T05:18:00.388Z,6.80
2023-08-15T05:20:28.967Z,6.60
2023-08-15T05:22:57.323Z,6.80
2023-08-15T05:25:25.610Z,6.70
2023-08-15T05:27:56.195Z,7.00
2023-08-15T05:30:24.641Z,6.90
2023-08-15T05:32:52.739Z,6.50
2023-08-15T05:35:20.950Z,5.60
2023-08-15T05:37:49.130Z,5.50
2023-08-15T05:40:18.058Z,4.90
2023-08-15T05:42:46.140Z,4.10
2023-08-15T05:45:14.737Z,3.70
2023-08-15T05:47:42.987Z,3.90
2023-08-15T05:50:11.443Z,4.00
2023-08-15T05:52:39.930Z,3.90
2023-08-15T05:55:08.849Z,4.10
2023-08-15T05:57:36.947Z,5.70
2023-08-15T06:00:06.536Z,6.30
2023-08-15T06:02:41.129Z,5.10
2023-08-15T06:05:09.579Z,4.00
2023-08-15T06:07:37.893Z,3.40
2023-08-15T06:10:07.295Z,3.60
2023-08-15T06:12:35.713Z,3.50
2023-08-15T06:15:04.479Z,3.30
2023-08-15T06:17:32.640Z,3.20
2023-08-15T06:20:01.045Z,3.00
2023-08-15T06:22:29.231Z,3.00
2023-08-15T06:24:57.428Z,3.00
2023-08-15T06:27:25.640Z,3.10
2023-08-15T06:29:53.953Z,3.10
2023-08-15T06:32:29.327Z,3.70
2023-08-15T06:34:58.484Z,3.00
2023-08-15T06:37:26.726Z,3.10
2023-08-15T06:39:55.041Z,3.00
2023-08-15T06:42:23.409Z,3.20
2023-08-15T06:45:02.534Z,2.80
2023-08-15T06:47:30.905Z,3.10
2023-08-15T06:49:59.202Z,2.90
2023-08-15T06:52:27.468Z,3.00
2023-08-15T06:54:55.749Z,2.90
2023-08-15T06:57:24.221Z,3.20
2023-08-15T06:59:52.404Z,2.90
2023-08-15T07:02:20.877Z,2.60
2023-08-15T07:04:50.120Z,3.00
2023-08-15T07:07:19.185Z,2.70
2023-08-15T07:09:47.864Z,2.70
2023-08-15T07:12:19.777Z,2.70
2023-08-15T07:14:48.469Z,2.70
2023-08-15T07:17:16.735Z,2.70
2023-08-15T07:19:44.988Z,3.20
2023-08-15T07:22:13.419Z,2.80
2023-08-15T07:24:41.869Z,3.10
2023-08-15T07:27:10.569Z,2.70
2023-08-15T07:29:39.040Z,3.00
2023-08-15T07:32:12.230Z,3.10
2023-08-15T07:34:42.227Z,3.00
2023-08-15T07:37:12.019Z,3.00
2023-08-15T07:39:40.398Z,3.10
2023-08-15T07:42:08.810Z,2.70
2023-08-15T07:44:37.837Z,3.20
2023-08-15T07:47:06.297Z,2.90
2023-08-15T07:49:39.494Z,3.40
2023-08-15T07:52:08.472Z,3.10
2023-08-15T07:54:36.744Z,3.10
2023-08-15T07:57:05.311Z,3.30
2023-08-15T07:59:33.702Z,3.20
2023-08-15T08:02:02.004Z,2.90
2023-08-15T08:04:31.090Z,3.10
2023-08-15T08:06:59.403Z,3.10
2023-08-15T08:09:27.961Z,3.00
2023-08-15T08:11:56.287Z,3.10
2023-08-15T08:14:24.636Z,3.20
2023-08-15T08:16:52.899Z,3.30
2023-08-15T08:19:21.560Z,3.30
2023-08-15T08:21:49.834Z,3.00
2023-08-15T08:24:18.262Z,3.30
2023-08-15T08:26:46.616Z,3.00
2023-08-15T08:29:15.643Z,3.20
2023-08-15T08:31:44.047Z,3.10
2023-08-15T08:34:15.549Z,3.10
2023-08-15T08:36:44.731Z,2.90
2023-08-15T08:39:25.792Z,2.60
2023-08-15T08:41:58.581Z,2.70
2023-08-15T08:44:27.953Z,2.60
2023-08-15T08:46:56.302Z,2.80
2023-08-15T08:49:27.871Z,3.10
2023-08-15T08:52:00.468Z,11.10
2023-08-15T08:54:46.916Z,2.90
2023-08-15T08:57:19.680Z,2.80
2023-08-15T08:59:48.457Z,2.70
2023-08-15T09:02:22.994Z,2.80
2023-08-15T09:04:53.820Z,2.70
2023-08-15T09:07:22.472Z,2.60
2023-08-15T09:09:51.232Z,9.30
2023-08-15T09:12:39.938Z,4.10
2023-08-15T09:15:09.961Z,3.00
2023-08-15T09:17:42.434Z,2.70
2023-08-15T09:20:15.151Z,2.80
2023-08-15T09:22:48.189Z,2.70
2023-08-15T09:25:20.801Z,2.50
2023-08-15T09:27:48.927Z,2.40
2023-08-15T09:30:18.604Z,2.80
2023-08-15T09:32:48.345Z,2.40
2023-08-15T09:35:19.664Z,2.90
2023-08-15T09:37:50.235Z,3.00
2023-08-15T09:40:26.082Z,2.70
2023-08-15T09:42:54.600Z,2.50
2023-08-15T09:45:23.332Z,2.30
2023-08-15T09:47:52.123Z,2.10
2023-08-15T09:50:20.476Z,2.80
2023-08-15T09:52:52.282Z,2.40
2023-08-15T09:55:21.378Z,2.40
2023-08-15T09:57:52.125Z,2.10
2023-08-15T10:00:21.580Z,2.40
2023-08-15T10:03:01.135Z,2.50
2023-08-15T10:05:33.676Z,2.40
2023-08-15T10:08:03.241Z,2.10
2023-08-15T10:10:34.440Z,2.30
2023-08-15T10:13:04.104Z,1.80
2023-08-15T10:15:33.963Z,2.00
2023-08-15T10:18:03.468Z,1.90
2023-08-15T10:20:37.660Z,1.90
2023-08-15T10:23:10.812Z,2.10
2023-08-15T10:25:42.752Z,2.30
2023-08-15T10:28:13.483Z,2.30
2023-08-15T10:30:52.749Z,2.10
2023-08-15T10:33:30.936Z,1.90
2023-08-15T10:35:59.255Z,2.10
2023-08-15T10:38:28.563Z,1.70
2023-08-15T10:41:07.899Z,1.90
2023-08-15T10:43:37.473Z,2.50
2023-08-15T10:46:08.161Z,1.80
2023-08-15T10:48:41.060Z,1.90
2023-08-15T10:51:20.359Z,2.10
2023-08-15T10:54:00.079Z,2.00
2023-08-15T10:56:30.704Z,6.20
2023-08-15T10:59:00.323Z,3.30
2023-08-15T11:01:30.090Z,2.90
2023-08-15T11:03:59.481Z,2.00
2023-08-15T11:06:30.195Z,11.10
2023-08-15T11:08:59.835Z,2.00
2023-08-15T11:11:28.284Z,2.00
2023-08-15T11:13:57.207Z,2.10
2023-08-15T11:16:25.646Z,2.10
2023-08-15T11:18:58.968Z,2.20
2023-08-15T11:21:30.095Z,4.00
2023-08-15T11:24:00.220Z,2.30
2023-08-15T11:26:29.426Z,2.40
2023-08-15T11:28:57.936Z,2.30
2023-08-15T11:31:27.409Z,2.10
2023-08-15T11:33:56.269Z,1.90
2023-08-15T11:36:24.662Z,2.50
2023-08-15T11:38:53.150Z,2.10
2023-08-15T11:41:21.878Z,3.20
2023-08-15T11:43:50.134Z,2.80
2023-08-15T11:46:18.508Z,5.90
2023-08-15T11:48:46.853Z,3.60
2023-08-15T11:51:21.994Z,3.90
2023-08-15T11:53:52.447Z,7.50
2023-08-15T11:56:21.953Z,2.90
2023-08-15T11:58:50.379Z,2.30
2023-08-15T12:01:18.774Z,2.60
2023-08-15T12:03:47.350Z,2.70
2023-08-15T12:06:16.129Z,2.40
2023-08-15T12:08:46.549Z,3.10
2023-08-15T12:11:21.774Z,5.20
2023-08-15T12:13:50.488Z,12.30
2023-08-15T12:16:20.995Z,15.30
2023-08-15T12:18:49.672Z,6.80
2023-08-15T12:21:18.324Z,3.30
2023-08-15T12:23:46.623Z,2.90
2023-08-15T12:26:15.075Z,3.00
2023-08-15T12:28:43.129Z,3.30
2023-08-15T12:31:11.952Z,3.80
2023-08-15T12:33:47.862Z,2.90
2023-08-15T12:36:16.797Z,2.90
2023-08-15T12:38:45.265Z,3.40
2023-08-15T12:41:15.241Z,12.00
2023-08-15T12:43:44.222Z,8.90
2023-08-15T12:46:12.785Z,5.20
2023-08-15T12:48:41.705Z,5.60
2023-08-15T12:51:10.050Z,3.60
2023-08-15T12:53:38.667Z,3.00
2023-08-15T12:56:07.096Z,2.70
2023-08-15T12:58:35.266Z,2.60
2023-08-15T13:01:03.656Z,2.70
2023-08-15T13:03:32.258Z,2.80
2023-08-15T13:06:00.865Z,2.70
2023-08-15T13:08:29.038Z,3.30
2023-08-15T13:10:58.247Z,3.30
2023-08-15T13:13:26.576Z,2.70
2023-08-15T13:15:55.165Z,4.70
2023-08-15T13:18:23.411Z,3.30
2023-08-15T13:20:52.247Z,3.60
2023-08-15T13:23:20.514Z,5.60
2023-08-15T13:25:48.944Z,10.70
2023-08-15T13:28:17.263Z,4.50
2023-08-15T13:30:48.235Z,4.60
2023-08-15T13:33:17.624Z,3.10
2023-08-15T13:35:46.800Z,3.10
2023-08-15T13:38:15.311Z,9.40
2023-08-15T13:40:43.623Z,3.30
2023-08-15T13:43:13.583Z,2.90
2023-08-15T13:45:42.473Z,4.00
2023-08-15T13:48:10.724Z,4.90
2023-08-15T13:50:39.176Z,3.20
2023-08-15T13:53:07.655Z,4.30
2023-08-15T13:55:35.766Z,8.00
2023-08-15T13:58:04.293Z,12.20
2023-08-15T14:00:34.003Z,4.20
2023-08-15T14:03:02.510Z,5.50
2023-08-15T14:05:30.995Z,5.60
2023-08-15T14:07:59.378Z,5.30
2023-08-15T14:10:28.057Z,9.80
2023-08-15T14:12:56.360Z,8.10
2023-08-15T14:15:26.121Z,3.50
2023-08-15T14:17:55.712Z,3.80
2023-08-15T14:20:24.578Z,5.00
2023-08-15T14:22:53.052Z,4.00
2023-08-15T14:25:21.763Z,5.30
2023-08-15T14:27:50.066Z,2.90
2023-08-15T14:30:18.474Z,6.10
2023-08-15T14:32:47.172Z,2.80
2023-08-15T14:35:15.659Z,2.80
2023-08-15T14:37:44.122Z,2.80
2023-08-15T14:40:12.581Z,2.70
2023-08-15T14:42:41.295Z,2.80
2023-08-15T14:45:10.972Z,2.80
2023-08-15T14:47:39.684Z,2.60
2023-08-15T14:50:08.856Z,2.80
2023-08-15T14:52:42.155Z,3.80
2023-08-15T14:55:13.789Z,3.80
2023-08-15T14:57:41.987Z,3.70
2023-08-15T15:00:11.018Z,3.00
2023-08-15T15:02:39.475Z,4.00
2023-08-15T15:05:08.700Z,3.30
2023-08-15T15:07:37.440Z,2.70
2023-08-15T15:10:06.337Z,3.20
2023-08-15T15:12:35.202Z,3.40
2023-08-15T15:15:05.012Z,3.80
2023-08-15T15:17:33.634Z,3.30
2023-08-15T15:20:02.258Z,3.20
2023-08-15T15:22:30.772Z,2.90
2023-08-15T15:24:59.272Z,3.30
2023-08-15T15:27:27.494Z,3.00
2023-08-15T15:29:55.836Z,3.10
2023-08-15T15:32:24.614Z,3.40
2023-08-15T15:34:53.142Z,3.20
2023-08-15T15:37:22.844Z,3.00
2023-08-15T15:39:52.836Z,3.10
2023-08-15T15:42:21.206Z,3.10
2023-08-15T15:44:49.942Z,3.20
2023-08-15T15:47:18.376Z,3.30
2023-08-15T15:49:46.607Z,3.70
2023-08-15T15:52:14.945Z,3.00
2023-08-15T15:54:43.288Z,2.90
2023-08-15T15:57:11.398Z,3.30
2023-08-15T15:59:39.867Z,3.30
2023-08-15T16:02:08.000Z,3.30
2023-08-15T16:04:36.284Z,3.20
2023-08-15T16:07:06.502Z,3.20
2023-08-15T16:09:35.668Z,3.40
2023-08-15T16:12:04.213Z,3.20
2023-08-15T16:14:32.455Z,3.30
2023-08-15T16:17:00.863Z,3.10
2023-08-15T16:19:29.133Z,3.50
2023-08-15T16:21:57.433Z,3.00
2023-08-15T16:24:25.569Z,3.50
2023-08-15T16:26:53.822Z,3.60
2023-08-15T16:29:22.215Z,3.30
2023-08-15T16:31:50.682Z,4.00
2023-08-15T16:34:19.065Z,4.40
2023-08-15T16:36:48.172Z,3.70
2023-08-15T16:39:16.824Z,4.00
2023-08-15T16:41:45.092Z,3.80
2023-08-15T16:44:13.650Z,3.90
2023-08-15T16:46:42.472Z,4.20
2023-08-15T16:49:12.713Z,4.50
2023-08-15T16:51:42.102Z,4.40
2023-08-15T16:54:10.370Z,5.30
2023-08-15T16:56:38.571Z,5.70
2023-08-15T16:59:06.944Z,5.70
2023-08-15T17:01:35.261Z,10.20
2023-08-15T17:04:03.812Z,7.10
2023-08-15T17:06:31.957Z,10.30
2023-08-15T17:09:00.291Z,11.20
2023-08-15T17:11:28.683Z,8.00
2023-08-15T17:13:57.381Z,8.10
2023-08-15T17:16:25.804Z,8.10
2023-08-15T17:18:54.058Z,8.20
2023-08-15T17:21:22.329Z,7.60
2023-08-15T17:23:50.567Z,6.60
2023-08-15T17:26:18.976Z,18.10
2023-08-15T17:28:47.261Z,5.80
2023-08-15T17:31:16.372Z,5.10
2023-08-15T17:33:44.887Z,4.30
2023-08-15T17:36:13.113Z,5.00
2023-08-15T17:38:41.719Z,12.30
2023-08-15T17:41:09.864Z,24.10
2023-08-15T17:43:38.390Z,32.40
2023-08-15T17:46:06.950Z,6.50
2023-08-15T17:48:35.165Z,8.20
2023-08-15T17:51:03.347Z,14.50
2023-08-15T17:53:31.823Z,12.60
2023-08-15T17:56:00.334Z,12.30
2023-08-15T17:58:46.992Z,9.30
2023-08-15T18:01:16.017Z,13.30
2023-08-15T18:03:46.879Z,14.50
2023-08-15T18:06:16.355Z,10.50
2023-08-15T18:08:45.318Z,13.10
2023-08-15T18:11:13.893Z,10.50
2023-08-15T18:13:42.137Z,6.00
2023-08-15T18:16:10.698Z,6.80
2023-08-15T18:18:38.890Z,6.50
2023-08-15T18:21:08.000Z,5.90
2023-08-15T18:23:38.540Z,5.20
2023-08-15T18:26:08.927Z,4.70
2023-08-15T18:28:37.248Z,6.00
2023-08-15T18:31:05.352Z,12.60
2023-08-15T18:33:34.362Z,11.60
2023-08-15T18:36:02.958Z,8.00
2023-08-15T18:38:32.798Z,5.70
2023-08-15T18:41:01.230Z,5.40
2023-08-15T18:43:29.587Z,5.30
2023-08-15T18:45:57.935Z,5.40
2023-08-15T18:48:26.948Z,5.60
2023-08-15T18:50:55.404Z,7.30
2023-08-15T18:53:23.984Z,8.30
2023-08-15T18:55:52.298Z,9.50
2023-08-15T18:58:20.534Z,9.10
2023-08-15T19:00:48.996Z,7.20
2023-08-15T19:03:17.447Z,6.50
2023-08-15T19:05:47.262Z,5.30
2023-08-15T19:08:15.536Z,5.70
2023-08-15T19:10:43.825Z,5.80
2023-08-15T19:13:12.041Z,5.50
2023-08-15T19:15:40.729Z,5.40
2023-08-15T19:18:09.042Z,4.80
2023-08-15T19:20:37.355Z,10.30
2023-08-15T19:23:05.854Z,10.10
2023-08-15T19:25:34.829Z,8.30
2023-08-15T19:28:03.248Z,8.60
2023-08-15T19:30:31.742Z,16.30
2023-08-15T19:33:00.075Z,6.30
2023-08-15T19:35:28.629Z,5.40
2023-08-15T19:37:56.785Z,5.00
2023-08-15T19:40:25.006Z,5.20
2023-08-15T19:42:53.483Z,5.70
2023-08-15T19:45:21.726Z,5.70
2023-08-15T19:47:50.377Z,5.10
2023-08-15T19:50:18.860Z,5.60
2023-08-15T19:52:47.300Z,5.00
2023-08-15T19:55:15.741Z,5.20
2023-08-15T19:57:45.690Z,5.30
2023-08-15T20:00:14.232Z,4.70
2023-08-15T20:02:42.496Z,4.90
2023-08-15T20:05:11.749Z,5.10
2023-08-15T20:07:40.217Z,5.30
2023-08-15T20:10:12.221Z,5.00
2023-08-15T20:12:41.833Z,5.20
2023-08-15T20:15:11.242Z,5.30
2023-08-15T20:17:40.320Z,4.90
2023-08-15T20:20:09.669Z,5.30
2023-08-15T20:22:38.042Z,4.80
2023-08-15T20:25:07.397Z,4.80
2023-08-15T20:27:35.643Z,4.60
2023-08-15T20:30:05.385Z,5.10
2023-08-15T20:32:33.765Z,5.00
2023-08-15T20:35:02.286Z,5.30
2023-08-15T20:37:32.657Z,4.90
2023-08-15T20:40:01.253Z,4.50
2023-08-15T20:42:29.724Z,4.90
2023-08-15T20:44:57.961Z,4.40
2023-08-15T20:47:26.766Z,4.60
2023-08-15T20:49:55.406Z,4.90
2023-08-15T20:52:23.950Z,4.60
2023-08-15T20:54:53.483Z,4.40
2023-08-15T20:57:21.637Z,4.90
2023-08-15T20:59:50.730Z,4.50
2023-08-15T21:02:19.289Z,4.60
2023-08-15T21:04:47.553Z,4.50
2023-08-15T21:07:15.725Z,4.90
2023-08-15T21:09:45.049Z,4.60
2023-08-15T21:12:14.225Z,4.40
2023-08-15T21:14:42.751Z,4.70
2023-08-15T21:17:10.956Z,4.50
2023-08-15T21:19:42.168Z,4.70
2023-08-15T21:22:10.612Z,5.40
2023-08-15T21:24:40.536Z,5.30
2023-08-15T21:27:09.420Z,4.50
2023-08-15T21:29:37.726Z,5.20
2023-08-15T21:32:09.634Z,5.00
2023-08-15T21:34:38.879Z,4.40
2023-08-15T21:37:08.177Z,4.60
2023-08-15T21:39:38.504Z,5.00
2023-08-15T21:42:06.632Z,4.60
2023-08-15T21:44:34.994Z,4.60
2023-08-15T21:47:03.304Z,4.60
2023-08-15T21:49:31.539Z,4.30
2023-08-15T21:52:00.009Z,4.20
2023-08-15T21:54:28.402Z,4.00
2023-08-15T21:56:58.962Z,4.20
2023-08-15T21:59:27.170Z,4.90
2023-08-15T22:01:55.506Z,4.70
2023-08-15T22:04:23.968Z,4.80
2023-08-15T22:06:52.283Z,7.50
2023-08-15T22:09:20.488Z,5.20
2023-08-15T22:11:48.970Z,5.40
2023-08-15T22:14:18.161Z,4.20
2023-08-15T22:16:46.629Z,4.10
2023-08-15T22:19:16.124Z,4.50
2023-08-15T22:21:44.582Z,4.60
2023-08-15T22:24:12.804Z,4.40
2023-08-15T22:26:40.956Z,4.20
2023-08-15T22:29:09.989Z,4.20
2023-08-15T22:31:38.560Z,4.30
2023-08-15T22:34:06.828Z,4.60
2023-08-15T22:36:35.961Z,4.40
2023-08-15T22:39:04.338Z,4.30
2023-08-15T22:41:32.459Z,4.00
2023-08-15T22:44:00.947Z,4.30
2023-08-15T22:46:29.259Z,4.70
2023-08-15T22:48:57.436Z,4.20
2023-08-15T22:51:25.790Z,4.30
2023-08-15T22:53:54.268Z,5.30
2023-08-15T22:56:22.424Z,4.50
2023-08-15T22:58:50.620Z,4.40
2023-08-15T23:01:19.279Z,5.00
2023-08-15T23:03:47.442Z,4.30
2023-08-15T23:06:15.653Z,4.30
2023-08-15T23:08:44.000Z,4.60
2023-08-15T23:11:12.414Z,4.40
2023-08-15T23:13:40.884Z,4.70
2023-08-15T23:16:09.162Z,4.20
2023-08-15T23:18:37.347Z,4.50
2023-08-15T23:21:06.500Z,4.50
2023-08-15T23:23:34.722Z,4.40
2023-08-15T23:26:03.202Z,3.80
2023-08-15T23:28:31.588Z,3.50
2023-08-15T23:31:00.240Z,3.90
2023-08-15T23:33:28.400Z,4.40
2023-08-15T23:35:56.696Z,4.60
2023-08-15T23:38:24.894Z,4.20
2023-08-15T23:40:53.250Z,4.30
2023-08-15T23:43:21.518Z,4.40
2023-08-15T23:45:50.358Z,4.10
2023-08-15T23:48:18.546Z,4.60
2023-08-15T23:50:46.799Z,4.40
2023-08-15T23:53:15.222Z,4.30
2023-08-15T23:55:43.986Z,4.40
2023-08-15T23:58:12.330Z,4.80
